createdAt,value
2017-11-03T14:31:55.992Z,57.77
2017-11-03T14:34:24.264Z,41.77
2017-11-03T14:36:52.509Z,48.50
2017-11-03T14:39:20.787Z,41.13
2017-11-03T14:41:49.087Z,45.60
2017-11-03T14:49:45.940Z,32.15
2017-11-03T14:52:14.378Z,19.90
2017-11-03T14:54:42.642Z,19.33
2017-11-03T14:57:10.966Z,16.07
2017-11-03T14:59:39.238Z,15.93
2017-11-03T15:02:07.630Z,17.40
2017-11-03T15:04:35.846Z,15.03
2017-11-03T15:07:04.297Z,17.43
2017-11-03T15:09:32.738Z,12.80
2017-11-03T15:12:01.736Z,17.07
2017-11-03T15:14:30.765Z,13.23
2017-11-03T15:16:59.033Z,16.97
2017-11-03T15:19:27.280Z,15.60
2017-11-03T15:21:55.638Z,11.90
2017-11-03T15:24:23.931Z,10.00
2017-11-03T15:26:52.203Z,10.23
2017-11-03T15:29:20.508Z,10.20
2017-11-03T15:31:48.946Z,10.63
2017-11-03T15:34:17.268Z,10.60
2017-11-03T15:36:45.516Z,14.40
2017-11-03T15:39:13.914Z,9.17
2017-11-03T15:41:42.172Z,9.30
2017-11-03T15:44:11.163Z,9.90
2017-11-03T15:46:39.646Z,7.43
2017-11-03T15:49:07.881Z,22.20
2017-11-03T15:51:36.106Z,14.03
2017-11-03T15:54:04.458Z,9.87
2017-11-03T15:56:32.707Z,12.80
2017-11-03T15:59:00.971Z,13.27
2017-11-03T16:01:29.247Z,16.07
2017-11-03T16:03:57.539Z,9.37
2017-11-03T16:06:25.792Z,11.33
2017-11-03T16:08:54.047Z,10.60
2017-11-03T16:11:23.076Z,10.10
2017-11-03T16:13:51.328Z,10.67
2017-11-03T16:16:19.571Z,12.80
2017-11-03T16:18:47.919Z,12.30
2017-11-03T16:21:16.168Z,12.97
2017-11-03T16:23:44.415Z,10.60
2017-11-03T16:26:12.672Z,12.77
2017-11-03T16:28:40.929Z,17.43
2017-11-03T16:31:09.239Z,9.97
2017-11-03T16:33:37.468Z,11.73
2017-11-03T16:36:05.722Z,10.83
2017-11-03T16:38:34.754Z,11.07
2017-11-03T16:41:02.983Z,13.83
2017-11-03T16:43:31.631Z,11.60
2017-11-03T16:45:59.883Z,10.97
2017-11-03T16:48:28.149Z,13.83
2017-11-03T16:50:56.381Z,11.20
2017-11-03T16:53:25.435Z,11.73
2017-11-03T16:55:53.680Z,14.53
2017-11-03T16:58:21.970Z,13.20
2017-11-03T17:00:50.251Z,10.30
2017-11-03T17:03:18.528Z,17.07
2017-11-03T17:05:46.816Z,13.13
2017-11-03T17:08:15.083Z,14.50
2017-11-03T17:10:43.392Z,10.80
2017-11-03T17:13:11.651Z,12.00
2017-11-03T17:15:40.159Z,16.73
2017-11-03T17:18:08.358Z,15.43
2017-11-03T17:20:36.603Z,11.67
2017-11-03T17:23:04.989Z,35.83
2017-11-03T17:25:33.213Z,27.03
2017-11-03T17:28:01.485Z,20.70
2017-11-03T17:30:29.760Z,15.43
2017-11-03T17:32:58.063Z,15.10
2017-11-03T17:35:26.574Z,15.20
2017-11-03T17:37:54.852Z,30.67
2017-11-03T17:40:23.128Z,28.50
2017-11-03T17:42:51.367Z,25.03
2017-11-03T17:49:22.760Z,35.73
2017-11-03T17:51:51.031Z,32.23
2017-11-03T17:54:19.375Z,35.50
2017-11-03T17:56:47.668Z,30.83
2017-11-03T17:59:15.927Z,33.60
2017-11-03T18:01:44.736Z,31.57
2017-11-03T18:04:13.014Z,31.17
2017-11-03T18:06:41.310Z,41.30
2017-11-03T18:09:11.127Z,35.53
2017-11-03T18:11:39.824Z,37.20
2017-11-03T18:14:08.086Z,74.60
2017-11-03T18:16:36.675Z,237.63
2017-11-03T18:19:04.973Z,61.73
2017-11-03T18:21:33.484Z,37.70
2017-11-03T18:24:01.869Z,44.37
2017-11-03T18:26:30.140Z,34.17
2017-11-03T18:28:58.430Z,39.80
2017-11-03T18:31:26.673Z,45.73
2017-11-03T18:33:55.725Z,40.50
2017-11-03T18:36:24.000Z,39.83
2017-11-03T18:38:52.347Z,45.63
2017-11-03T18:41:21.356Z,45.40
2017-11-03T18:43:49.632Z,40.93
2017-11-03T18:46:17.935Z,45.50
2017-11-03T18:48:46.287Z,42.17
2017-11-03T18:51:14.608Z,40.43
2017-11-03T18:53:42.855Z,39.97
2017-11-03T18:56:11.123Z,40.40
2017-11-03T18:58:39.415Z,42.23
2017-11-03T19:01:07.760Z,39.97
2017-11-03T19:03:36.030Z,41.93
2017-11-03T19:06:04.298Z,42.00
2017-11-03T19:08:32.605Z,50.50
2017-11-03T19:11:00.864Z,49.67
2017-11-03T19:13:29.152Z,46.37
2017-11-03T19:15:57.441Z,44.33
2017-11-03T19:18:25.740Z,44.63
2017-11-03T19:20:55.089Z,50.00
2017-11-03T19:23:23.411Z,42.17
2017-11-03T19:25:51.693Z,42.40
2017-11-03T19:28:19.945Z,45.80
2017-11-03T19:30:48.330Z,50.70
2017-11-03T19:33:16.648Z,55.37
2017-11-03T19:35:45.664Z,53.77
2017-11-03T19:38:13.919Z,89.93
2017-11-03T19:40:42.159Z,118.63
2017-11-03T19:43:10.431Z,74.13
2017-11-03T19:45:38.699Z,47.50
2017-11-03T19:48:06.969Z,52.67
2017-11-03T19:50:35.240Z,47.97
2017-11-03T19:53:03.560Z,52.60
2017-11-03T19:55:31.831Z,39.07
2017-11-03T19:58:00.109Z,45.30
2017-11-03T20:00:28.340Z,40.80
2017-11-03T20:02:56.599Z,47.20
2017-11-03T20:05:24.878Z,47.50
2017-11-03T20:07:53.916Z,45.67
2017-11-03T20:10:22.163Z,38.40
2017-11-03T20:12:50.401Z,40.63
2017-11-03T20:15:18.651Z,43.73
2017-11-03T20:17:46.947Z,42.10
2017-11-03T20:20:15.180Z,49.00
2017-11-03T20:22:43.440Z,45.40
2017-11-03T20:25:11.695Z,41.20
2017-11-03T20:27:41.552Z,42.37
2017-11-03T20:30:09.809Z,45.63
2017-11-03T20:32:38.077Z,44.87
2017-11-03T20:35:06.344Z,42.33
2017-11-03T20:37:34.581Z,52.73
2017-11-03T20:40:03.676Z,44.73
2017-11-03T20:42:31.922Z,43.80
2017-11-03T20:45:00.175Z,48.10
2017-11-03T20:47:28.444Z,41.40
2017-11-03T20:49:57.464Z,87.27
2017-11-03T20:52:25.696Z,73.40
2017-11-03T20:54:53.971Z,46.03
2017-11-03T20:57:22.236Z,42.87
2017-11-03T20:59:50.486Z,48.70
2017-11-03T21:02:18.748Z,45.77
2017-11-03T21:04:47.022Z,46.27
2017-11-03T21:07:15.280Z,41.23
2017-11-03T21:09:43.616Z,48.80
2017-11-03T21:12:11.843Z,44.60
2017-11-03T21:14:40.096Z,44.87
2017-11-03T21:17:08.374Z,43.77
2017-11-03T21:19:37.392Z,38.37
2017-11-03T21:22:05.680Z,36.27
2017-11-03T21:24:34.017Z,40.37
2017-11-03T21:27:03.039Z,37.37
2017-11-03T21:29:31.308Z,40.23
2017-11-03T21:31:59.575Z,36.20
2017-11-03T21:34:27.836Z,38.40
2017-11-03T21:36:56.173Z,38.07
2017-11-03T21:39:24.466Z,40.30
2017-11-03T21:41:52.808Z,40.10
2017-11-03T21:44:21.066Z,35.80
2017-11-03T21:46:49.323Z,40.73
2017-11-03T21:49:18.357Z,43.07
2017-11-03T21:51:46.593Z,37.60
2017-11-03T21:54:14.865Z,36.30
2017-11-03T21:56:43.087Z,35.87
2017-11-03T21:59:11.344Z,42.87
2017-11-03T22:01:39.641Z,43.30
2017-11-03T22:04:07.915Z,38.50
2017-11-03T22:06:36.185Z,45.87
2017-11-03T22:09:04.480Z,46.73
2017-11-03T22:11:32.742Z,43.23
2017-11-03T22:14:00.978Z,41.30
2017-11-03T22:16:30.004Z,42.20
2017-11-03T22:18:58.272Z,38.97
2017-11-03T22:21:26.536Z,39.20
2017-11-03T22:23:54.813Z,38.73
2017-11-03T22:29:54.037Z,65.90
2017-11-03T22:32:22.322Z,38.90
2017-11-03T22:34:50.584Z,44.83
2017-11-03T22:37:18.826Z,42.90
2017-11-03T22:39:47.104Z,40.50
2017-11-03T22:42:15.327Z,36.73
2017-11-03T22:44:43.587Z,36.67
2017-11-03T22:47:11.862Z,37.47
2017-11-03T22:49:40.860Z,42.10
2017-11-03T22:52:09.132Z,37.57
2017-11-03T22:54:38.121Z,43.47
2017-11-03T22:57:07.147Z,37.90
2017-11-03T22:59:35.391Z,43.10
2017-11-03T23:02:03.633Z,44.20
2017-11-03T23:04:31.888Z,43.00
2017-11-03T23:07:00.129Z,35.47
2017-11-03T23:09:28.389Z,41.33
2017-11-03T23:11:57.404Z,36.60
2017-11-03T23:14:25.652Z,40.50
2017-11-03T23:16:54.129Z,40.33
2017-11-03T23:19:22.368Z,39.80
2017-11-03T23:21:56.450Z,36.57
2017-11-03T23:24:24.724Z,37.43
2017-11-03T23:26:52.981Z,48.40
2017-11-03T23:29:21.250Z,46.90
2017-11-03T23:31:49.488Z,34.93
2017-11-03T23:34:17.756Z,35.77
2017-11-03T23:36:45.999Z,37.23
2017-11-03T23:39:14.241Z,32.73
2017-11-03T23:41:42.490Z,28.90
2017-11-03T23:44:10.719Z,31.43
2017-11-03T23:46:38.987Z,32.33
2017-11-03T23:49:07.230Z,37.57
2017-11-03T23:51:35.504Z,32.67
2017-11-03T23:54:03.741Z,28.33
2017-11-03T23:56:31.996Z,30.27
2017-11-03T23:59:00.270Z,38.70
